Time;durP1;ratioP1;P1;durP2;ratioP2;P2;SDS_P1;SDS_P2;PMS_P1;PMS_P2;Temp;Humidity;BMP_temperature;BMP_pressure;BME280_temperature;BME280_humidity;BME280_pressure;Samples;Min_cycle;Max_cycle;Signal;HPM_P1;HPM_P2
2021/04/15 00:00:39;;;;;;;12.57;7.35;;;;;;;2.35;61.68;93167.94;2071407;69;20135;-74
2021/04/15 00:03:06;;;;;;;;;;;;;;;2.22;61.95;93163.22;2069757;69;20155;-73
2021/04/15 00:05:33;;;;;;;11.90;8.15;;;;;;;1.88;64.13;93162.59;2071326;69;20052;-73
2021/04/15 00:07:59;;;;;;;9.70;7.50;;;;;;;2.40;62.15;93164.25;2071478;69;20132;-72
2021/04/15 00:10:49;;;;;;;11.60;7.90;;;;;;;2.46;62.12;93150.22;2071341;69;20159;-73
2021/04/15 00:13:25;;;;;;;10.82;7.70;;;;;;;2.44;62.37;93155.59;2071737;69;20164;-72
2021/04/15 00:15:52;;;;;;;13.52;8.55;;;;;;;2.35;62.92;93154.03;2071536;69;20156;-72
2021/04/15 00:18:18;;;;;;;12.15;8.13;;;;;;;2.19;63.73;93147.63;2071372;69;20124;-72
2021/04/15 00:20:44;;;;;;;12.73;8.45;;;;;;;2.09;64.34;93143.88;2071462;69;20163;-73
2021/04/15 00:23:10;;;;;;;11.38;8.20;;;;;;;2.23;64.18;93145.25;2071263;69;20210;-73
2021/04/15 00:25:35;;;;;;;13.85;8.95;;;;;;;2.22;64.32;93148.59;2071583;69;20594;-73
2021/04/15 00:28:02;;;;;;;13.32;8.98;;;;;;;2.52;62.97;93146.00;2071208;69;20152;-74
2021/04/15 00:30:28;;;;;;;10.25;8.25;;;;;;;2.87;61.95;93143.00;2071314;69;20645;-74
2021/04/15 00:32:53;;;;;;;14.57;8.30;;;;;;;2.89;61.21;93141.16;2071172;69;20273;-73
2021/04/15 00:35:20;;;;;;;11.77;7.75;;;;;;;2.89;60.77;93132.81;2071298;69;20221;-74
2021/04/15 00:37:47;;;;;;;13.43;9.20;;;;;;;2.66;62.62;93137.53;2071389;69;20200;-71
2021/04/15 00:40:15;;;;;;;14.13;8.43;;;;;;;2.81;63.01;93137.59;2071181;69;20592;-73
2021/04/15 00:42:40;;;;;;;13.05;9.00;;;;;;;2.84;63.54;93138.53;2071085;69;20264;-71
2021/04/15 00:45:17;;;;;;;13.00;9.23;;;;;;;2.17;66.81;93141.91;2071248;69;20200;-72
2021/04/15 00:47:47;;;;;;;11.65;8.75;;;;;;;2.33;66.28;93139.19;2067922;69;20592;-73
2021/04/15 00:50:39;;;;;;;15.75;10.57;;;;;;;1.96;68.93;93138.41;2071086;69;20210;-72
2021/04/15 00:53:07;;;;;;;14.77;9.82;;;;;;;1.74;69.33;93139.72;2071024;69;20620;-71
2021/04/15 00:55:35;;;;;;;15.38;9.93;;;;;;;2.23;67.02;93128.59;2067770;69;20235;-70
2021/04/15 00:58:02;;;;;;;13.82;9.55;;;;;;;2.33;67.65;93137.16;2071181;69;20140;-72
2021/04/15 01:00:29;;;;;;;13.55;9.45;;;;;;;2.62;65.96;93137.88;2067928;69;20128;-69
2021/04/15 01:02:56;;;;;;;13.82;8.98;;;;;;;2.68;65.25;93132.16;2071227;69;20251;-70
2021/04/15 01:05:28;;;;;;;13.93;9.68;;;;;;;2.59;66.60;93138.97;2071179;69;20164;-70
2021/04/15 01:07:55;;;;;;;11.80;9.00;;;;;;;2.54;66.34;93135.06;2070995;69;20155;-73
2021/04/15 01:10:23;;;;;;;14.20;8.90;;;;;;;2.60;65.26;93134.91;2071066;69;20144;-70
2021/04/15 01:13:23;;;;;;;14.38;9.40;;;;;;;2.68;65.40;93132.91;2071321;69;20132;-72
2021/04/15 01:16:19;;;;;;;12.90;9.40;;;;;;;2.62;64.59;93137.88;2071100;69;20152;-71
2021/04/15 01:18:54;;;;;;;16.20;9.68;;;;;;;2.43;65.67;93129.06;2071472;69;20214;-69
2021/04/15 01:21:39;;;;;;;13.32;8.82;;;;;;;2.69;65.10;93134.38;2071350;69;20202;-71
2021/04/15 01:24:16;;;;;;;12.55;9.07;;;;;;;2.62;65.34;93140.66;2071143;69;20179;-71
2021/04/15 01:27:11;;;;;;;15.35;10.48;;;;;;;2.04;67.91;93142.72;2071016;69;20612;-70
2021/04/15 01:29:49;;;;;;;16.42;10.38;;;;;;;2.32;66.72;93140.50;2071192;69;20256;-72
2021/04/15 01:32:27;;;;;;;13.65;9.73;;;;;;;2.35;64.93;93142.19;2071466;69;20156;-69
2021/04/15 01:35:00;;;;;;;14.10;9.88;;;;;;;2.42;65.37;93144.25;2071629;69;20231;-70
2021/04/15 01:37:53;;;;;;;15.98;11.30;;;;;;;2.23;67.92;93147.28;2071553;69;20233;-71
2021/04/15 01:40:27;;;;;;;13.70;10.35;;;;;;;2.43;66.30;93140.19;2071536;69;20156;-72
2021/04/15 01:43:00;;;;;;;15.73;10.07;;;;;;;2.09;67.51;93140.34;2071654;69;20178;-69
2021/04/15 01:45:28;;;;;;;14.50;10.50;;;;;;;2.19;68.06;93139.31;2068120;69;20129;-69
2021/04/15 01:48:02;;;;;;;14.18;9.95;;;;;;;2.42;66.50;93133.13;2071437;69;20191;-69
2021/04/15 01:51:05;;;;;;;17.35;11.40;;;;;;;2.26;67.20;93127.50;2068085;69;20144;-70
2021/04/15 01:53:47;;;;;;;13.82;9.93;;;;;;;2.46;66.20;93122.41;2071380;69;20152;-71
2021/04/15 01:56:33;;;;;;;14.15;9.82;;;;;;;2.45;65.73;93123.72;2071714;69;20167;-71
2021/04/15 01:59:26;;;;;;;15.15;10.25;;;;;;;2.52;65.61;93123.00;2071599;69;20148;-71
2021/04/15 02:01:55;;;;;;;14.77;10.30;;;;;;;2.55;65.61;93125.44;2067633;69;20140;-69
2021/04/15 02:04:31;;;;;;;18.60;12.13;;;;;;;1.62;69.61;93130.94;2071396;69;20781;-70
2021/04/15 02:07:10;;;;;;;16.63;11.55;;;;;;;2.19;67.39;93125.41;2068417;69;20144;-71
2021/04/15 02:09:38;;;;;;;17.35;11.43;;;;;;;2.44;66.12;93125.00;2071362;69;20223;-71
2021/04/15 02:12:09;;;;;;;16.67;11.15;;;;;;;2.12;66.49;93122.59;2071608;69;20144;-70
2021/04/15 02:14:40;;;;;;;14.95;11.05;;;;;;;2.19;67.16;93117.06;2071878;69;20167;-71
2021/04/15 02:17:09;;;;;;;15.60;11.35;;;;;;;2.28;66.93;93113.78;2068220;69;20175;-73
2021/04/15 02:19:48;;;;;;;16.48;12.23;;;;;;;1.96;68.38;93114.16;2071833;69;20147;-74
2021/04/15 02:22:52;;;;;;;15.90;11.88;;;;;;;2.20;67.82;93110.25;2068114;69;20239;-70
2021/04/15 02:25:35;;;;;;;20.10;11.32;;;;;;;2.25;66.40;93109.34;2068591;69;20622;-70
2021/04/15 02:28:17;;;;;;;17.88;11.57;;;;;;;2.31;66.69;93109.19;2071321;69;20201;-70
2021/04/15 02:30:45;;;;;;;17.38;11.35;;;;;;;2.22;67.12;93104.88;2071141;69;20191;-71
2021/04/15 02:33:24;;;;;;;18.95;12.45;;;;;;;2.12;67.10;93103.91;2071439;69;20152;-72
2021/04/15 02:36:02;;;;;;;16.25;11.57;;;;;;;2.36;66.53;93110.31;2071331;69;20140;-71
2021/04/15 02:38:46;;;;;;;17.92;11.75;;;;;;;1.99;68.25;93109.56;2071188;69;20524;-70
2021/04/15 02:41:17;;;;;;;17.63;12.60;;;;;;;2.16;67.82;93103.56;2071190;69;20180;-70
2021/04/15 02:43:52;;;;;;;19.17;12.20;;;;;;;2.08;67.42;93106.28;2071368;69;20164;-73
2021/04/15 02:46:31;;;;;;;16.48;11.90;;;;;;;2.08;67.95;93100.72;2071249;69;20145;-73
2021/04/15 02:49:01;;;;;;;15.43;11.38;;;;;;;2.08;67.71;93103.50;2071416;69;20151;-73
2021/04/15 02:51:34;;;;;;;18.77;12.50;;;;;;;2.20;67.59;93104.69;2071171;69;20223;-74
2021/04/15 02:54:09;;;;;;;18.90;12.20;;;;;;;1.88;67.96;93107.06;2071458;69;20209;-70
2021/04/15 02:56:58;;;;;;;16.52;11.98;;;;;;;1.72;69.19;93111.75;2071160;69;20607;-71
2021/04/15 02:59:56;;;;;;;18.65;12.52;;;;;;;1.48;69.54;93101.78;2068539;69;20175;-72
2021/04/15 03:02:26;;;;;;;17.05;12.95;;;;;;;1.62;70.28;93096.88;2065820;69;20140;-69
2021/04/15 03:04:58;;;;;;;17.63;12.60;;;;;;;1.83;68.35;93096.84;2071496;69;20144;-70
2021/04/15 03:07:26;;;;;;;20.52;12.38;;;;;;;1.96;68.06;93099.53;2071357;69;20148;-73
2021/04/15 03:09:54;;;;;;;18.48;12.27;;;;;;;1.75;69.25;93096.81;2068380;69;20608;-70
2021/04/15 03:12:29;;;;;;;21.17;12.63;;;;;;;1.97;68.18;93090.66;2071646;69;20171;-71
2021/04/15 03:15:04;;;;;;;17.50;13.02;;;;;;;2.04;68.08;93095.50;2071745;69;20527;-71
2021/04/15 03:17:33;;;;;;;18.98;13.07;;;;;;;2.03;68.94;93087.75;2071428;69;20187;-70
2021/04/15 03:20:04;;;;;;;18.65;12.90;;;;;;;2.07;67.75;93102.03;2071685;69;20612;-71
2021/04/15 03:22:40;;;;;;;19.95;13.05;;;;;;;2.13;67.96;93099.81;2071467;69;20220;-73
2021/04/15 03:25:07;;;;;;;18.40;12.13;;;;;;;1.99;68.17;93101.97;2071364;69;20149;-73
2021/04/15 03:27:53;;;;;;;22.17;12.82;;;;;;;2.02;68.51;93100.13;2071873;69;20128;-72
2021/04/15 03:30:28;;;;;;;16.98;12.60;;;;;;;2.14;68.44;93092.22;2071679;69;20535;-73
2021/04/15 03:33:41;;;;;;;18.73;12.18;;;;;;;1.73;68.47;93091.03;2071964;69;20136;-74
2021/04/15 03:36:07;;;;;;;;;;;;;;;1.64;69.21;93099.84;2058756;69;20132;-72
2021/04/15 03:38:40;;;;;;;17.75;12.68;;;;;;;1.88;68.86;93104.28;2071676;69;20047;-73
2021/04/15 03:41:12;;;;;;;16.98;12.85;;;;;;;1.83;68.80;93096.84;2071803;69;20159;-73
2021/04/15 03:43:44;;;;;;;21.20;13.45;;;;;;;1.53;70.44;93098.84;2071737;69;20510;-71
2021/04/15 03:46:16;;;;;;;24.90;13.32;;;;;;;1.92;68.67;93096.34;2071683;69;20151;-74
2021/04/15 03:48:49;;;;;;;20.35;13.30;;;;;;;2.05;67.72;93096.25;2071667;69;20250;-73
2021/04/15 03:51:20;;;;;;;21.95;13.95;;;;;;;2.01;67.40;93095.84;2071764;69;20152;-72
2021/04/15 03:53:52;;;;;;;19.50;12.98;;;;;;;2.16;66.71;93093.19;2071622;69;20164;-72
2021/04/15 03:56:27;;;;;;;22.90;14.57;;;;;;;2.18;67.02;93098.19;2071770;69;20184;-72
2021/04/15 03:58:59;;;;;;;23.48;13.38;;;;;;;1.93;67.98;93087.50;2068409;69;20141;-73
2021/04/15 04:01:30;;;;;;;24.35;13.95;;;;;;;1.99;67.56;93087.34;2071659;69;20184;-71
2021/04/15 04:04:16;;;;;;;19.45;12.48;;;;;;;1.78;67.87;93085.34;2071688;69;20160;-71
2021/04/15 04:06:43;;;;;;;18.38;12.88;;;;;;;1.76;68.62;93087.19;2071755;69;20608;-73
2021/04/15 04:09:16;;;;;;;16.13;11.68;;;;;;;1.91;67.84;93092.09;2071824;69;20144;-71
2021/04/15 04:11:46;;;;;;;16.70;12.25;;;;;;;2.13;66.78;93087.97;2068534;69;20532;-73
2021/04/15 04:14:40;;;;;;;22.00;12.43;;;;;;;2.06;67.26;93091.44;2071674;69;20144;-71
2021/04/15 04:17:13;;;;;;;19.85;12.05;;;;;;;2.30;66.11;93088.25;2070180;69;20168;-71
2021/04/15 04:19:44;;;;;;;20.10;12.48;;;;;;;2.27;66.55;93089.34;2071681;69;20148;-71
2021/04/15 04:22:11;;;;;;;21.90;13.20;;;;;;;1.87;67.68;93083.38;2071695;69;20183;-72
2021/04/15 04:25:13;;;;;;;23.08;12.77;;;;;;;1.68;68.20;93089.16;2071638;69;20163;-71
2021/04/15 04:27:54;;;;;;;20.08;11.75;;;;;;;1.68;66.23;93084.34;2068314;69;20596;-73
2021/04/15 04:30:46;;;;;;;19.70;11.27;;;;;;;1.85;65.94;93091.50;2071541;69;20149;-70
2021/04/15 04:33:16;;;;;;;17.48;12.07;;;;;;;2.00;65.52;93086.78;2069312;69;20152;-72
2021/04/15 04:35:46;;;;;;;17.15;12.05;;;;;;;2.12;65.85;93087.22;2071657;69;20229;-73
2021/04/15 04:38:17;;;;;;;17.80;11.27;;;;;;;2.24;64.95;93090.44;2071597;69;20190;-74
2021/04/15 04:40:47;;;;;;;20.70;11.73;;;;;;;2.22;64.88;93090.25;2071643;69;20147;-73
2021/04/15 04:43:19;;;;;;;17.45;11.68;;;;;;;2.33;64.95;93100.31;2071651;69;20306;-73
2021/04/15 04:45:45;;;;;;;16.83;12.10;;;;;;;2.40;64.46;93099.59;2071550;69;20345;-72
2021/04/15 04:48:20;;;;;;;20.67;12.13;;;;;;;2.37;65.27;93101.44;2071746;69;20325;-74
2021/04/15 04:50:53;;;;;;;17.98;11.65;;;;;;;2.39;65.03;93104.44;2071692;69;20213;-74
2021/04/15 04:53:28;;;;;;;18.42;12.93;;;;;;;2.21;66.56;93108.97;2071629;69;20551;-73
2021/04/15 04:55:57;;;;;;;18.65;12.70;;;;;;;2.45;65.27;93118.16;2068268;69;20618;-73
2021/04/15 04:58:23;;;;;;;18.75;12.88;;;;;;;2.53;65.25;93118.94;2071636;69;20206;-74
2021/04/15 05:00:55;;;;;;;21.48;12.25;;;;;;;2.53;64.17;93118.94;2071526;69;20719;-74
2021/04/15 05:03:26;;;;;;;21.73;13.60;;;;;;;2.49;64.66;93121.34;2071712;69;20184;-74
2021/04/15 05:06:10;;;;;;;21.92;13.65;;;;;;;2.57;64.66;93124.91;2071825;69;20143;-75
2021/04/15 05:08:45;;;;;;;19.67;13.63;;;;;;;2.25;63.33;93120.47;2068776;69;20160;-74
2021/04/15 05:11:10;;;;;;;21.70;13.88;;;;;;;2.35;63.60;93122.75;2072122;69;20143;-74
2021/04/15 05:13:36;;;;;;;19.10;12.82;;;;;;;2.49;63.48;93118.56;2072098;69;20156;-74
2021/04/15 05:16:03;;;;;;;23.08;14.65;;;;;;;1.95;64.42;93126.56;2071977;69;20536;-73
2021/04/15 05:18:30;;;;;;;19.95;14.73;;;;;;;1.63;66.58;93115.03;2072074;69;20140;-73
2021/04/15 05:21:07;;;;;;;18.98;14.07;;;;;;;1.52;67.38;93122.34;2072037;69;20152;-72
2021/04/15 05:23:59;;;;;;;23.00;15.43;;;;;;;1.63;67.02;93126.88;2072201;69;20137;-72
2021/04/15 05:26:27;;;;;;;23.45;15.35;;;;;;;1.61;67.74;93120.38;2072064;69;20508;-72
2021/04/15 05:28:57;;;;;;;23.02;14.48;;;;;;;1.95;66.02;93132.09;2068735;69;20151;-71
2021/04/15 05:31:27;;;;;;;20.92;15.38;;;;;;;1.82;66.68;93123.88;2071890;69;20136;-71
2021/04/15 05:33:54;;;;;;;24.20;14.60;;;;;;;1.80;66.37;93126.44;2068808;69;20573;-71
2021/04/15 05:36:25;;;;;;;21.85;14.82;;;;;;;1.88;66.79;93126.50;2072033;69;20603;-72
2021/04/15 05:38:57;;;;;;;24.02;14.55;;;;;;;1.87;67.48;93125.75;2071912;69;20142;-72
2021/04/15 05:41:45;;;;;;;20.67;15.27;;;;;;;1.67;67.78;93126.53;2072063;69;20210;-71
2021/04/15 05:44:21;;;;;;;19.83;14.57;;;;;;;1.67;68.58;93135.59;2072147;69;20152;-73
2021/04/15 05:46:50;;;;;;;21.55;15.35;;;;;;;1.85;67.98;93131.13;2071924;69;20227;-72
2021/04/15 05:49:22;;;;;;;22.58;15.23;;;;;;;1.67;68.17;93137.63;2072126;69;20180;-73
2021/04/15 05:51:52;;;;;;;24.13;15.30;;;;;;;1.52;69.58;93130.66;2071996;69;20144;-71
2021/04/15 05:54:21;;;;;;;22.80;16.42;;;;;;;1.41;69.02;93138.50;2072027;69;20609;-72
2021/04/15 05:56:59;;;;;;;26.90;16.17;;;;;;;1.35;69.87;93135.88;2072018;69;20163;-72
2021/04/15 05:59:33;;;;;;;27.08;15.75;;;;;;;2.04;67.58;93137.16;2072157;69;20581;-73
2021/04/15 06:02:27;;;;;;;26.92;17.33;;;;;;;1.76;67.73;93140.66;2071854;69;20140;-73
2021/04/15 06:05:13;;;;;;;23.90;15.00;;;;;;;2.13;67.51;93147.03;2071893;69;20136;-73
2021/04/15 06:07:41;;;;;;;22.23;15.25;;;;;;;2.52;66.26;93143.22;2071972;69;20146;-73
2021/04/15 06:10:10;;;;;;;25.92;15.75;;;;;;;2.04;66.38;93142.72;2071955;69;20144;-71
2021/04/15 06:12:42;;;;;;;23.65;15.48;;;;;;;1.97;67.11;93139.88;2071948;69;20171;-74
2021/04/15 06:15:20;;;;;;;21.35;14.98;;;;;;;2.52;65.73;93143.22;2071888;69;20137;-72
2021/04/15 06:17:55;;;;;;;21.52;14.23;;;;;;;2.75;64.73;93148.88;2071804;69;20697;-73
2021/04/15 06:20:30;;;;;;;22.25;14.32;;;;;;;2.91;63.70;93138.56;2071926;69;20135;-73
2021/04/15 06:23:03;;;;;;;20.77;14.18;;;;;;;3.22;62.84;93147.75;2071997;69;20602;-72
2021/04/15 06:25:34;;;;;;;23.52;14.88;;;;;;;3.33;62.53;93145.91;2071990;69;20144;-74
2021/04/15 06:28:07;;;;;;;21.50;14.07;;;;;;;2.72;63.89;93146.47;2071948;69;20145;-72
2021/04/15 06:30:36;;;;;;;19.15;13.68;;;;;;;3.29;62.17;93146.28;2071886;69;20147;-71
2021/04/15 06:33:12;;;;;;;18.20;13.07;;;;;;;3.63;61.87;93151.56;2072022;69;20574;-73
2021/04/15 06:35:37;;;;;;;19.60;13.27;;;;;;;3.62;61.36;93152.84;2071904;69;20145;-72
2021/04/15 06:38:18;;;;;;;18.65;13.52;;;;;;;3.62;60.49;93147.28;2071748;69;20158;-72
2021/04/15 06:41:08;;;;;;;19.60;12.40;;;;;;;4.15;58.41;93140.97;2072026;69;20136;-72
2021/04/15 06:44:05;;;;;;;17.98;12.32;;;;;;;4.06;59.05;93149.88;2072038;69;20152;-73
2021/04/15 06:46:41;;;;;;;16.48;11.95;;;;;;;4.23;57.45;93147.28;2071739;69;20155;-73
2021/04/15 06:49:27;;;;;;;19.27;12.70;;;;;;;4.42;57.83;93149.66;2071855;69;20142;-73
2021/04/15 06:52:18;;;;;;;16.23;11.68;;;;;;;4.60;57.51;93153.34;2071986;69;20136;-73
2021/04/15 06:55:15;;;;;;;16.20;11.77;;;;;;;4.59;57.45;93152.63;2071850;69;20145;-73
2021/04/15 06:58:06;;;;;;;20.70;12.68;;;;;;;4.62;57.19;93156.31;2071986;69;20132;-73
2021/04/15 07:00:50;;;;;;;16.88;12.43;;;;;;;4.89;56.94;93158.66;2071807;69;20156;-73
2021/04/15 07:03:36;;;;;;;18.10;11.48;;;;;;;3.79;56.92;93149.50;2071928;69;20500;-74
2021/04/15 07:06:08;;;;;;;15.90;11.25;;;;;;;3.54;58.92;93149.31;2071870;69;20156;-71
2021/04/15 07:09:21;;;;;;;16.48;11.38;;;;;;;4.05;58.27;93153.97;2071843;69;20144;-71
2021/04/15 07:12:08;;;;;;;17.87;10.70;;;;;;;2.98;58.95;93151.03;2071865;69;20164;-70
2021/04/15 07:14:53;;;;;;;14.70;10.23;;;;;;;2.87;57.72;93151.34;2071911;69;20265;-72
2021/04/15 07:17:37;;;;;;;15.82;10.10;;;;;;;4.36;55.12;93159.53;2071837;69;20140;-70
2021/04/15 07:20:34;;;;;;;14.95;9.95;;;;;;;4.56;54.51;93150.94;2071905;69;20247;-71
2021/04/15 07:23:35;;;;;;;16.15;11.00;;;;;;;4.43;53.99;93153.19;2071972;69;20604;-72
2021/04/15 07:26:07;;;;;;;16.63;10.82;;;;;;;4.06;54.25;93144.31;2071866;69;20192;-74
2021/04/15 07:28:57;;;;;;;16.75;9.73;;;;;;;3.24;55.27;93145.16;2071609;69;20136;-73
2021/04/15 07:31:41;;;;;;;16.45;11.85;;;;;;;3.89;54.36;93150.44;2068324;69;20139;-73
2021/04/15 07:34:19;;;;;;;15.40;10.43;;;;;;;3.43;55.33;93150.38;2071836;69;20168;-74
2021/04/15 07:37:13;;;;;;;19.45;12.40;;;;;;;4.53;53.45;93146.47;2071744;69;20144;-74
2021/04/15 07:40:14;;;;;;;15.98;9.95;;;;;;;4.38;52.83;93148.56;2071665;69;20600;-71
2021/04/15 07:42:47;;;;;;;13.82;9.43;;;;;;;3.73;54.01;93149.69;2066106;69;20492;-73
2021/04/15 07:45:21;;;;;;;16.00;9.98;;;;;;;3.71;53.64;93143.19;2071699;69;20156;-73
2021/04/15 07:48:26;;;;;;;13.25;9.30;;;;;;;4.65;53.06;93144.03;2071727;69;20147;-73
2021/04/15 07:51:13;;;;;;;13.32;10.20;;;;;;;4.29;52.58;93145.03;2071762;69;20140;-72
2021/04/15 07:54:16;;;;;;;12.73;9.43;;;;;;;5.59;51.87;93146.63;2071747;69;20156;-72
2021/04/15 07:57:30;;;;;;;12.13;9.07;;;;;;;5.97;49.17;93151.25;2071748;69;20151;-72
2021/04/15 08:00:31;;;;;;;12.65;8.93;;;;;;;5.04;48.61;93148.19;2053733;69;20173;-74
2021/04/15 08:03:21;;;;;;;12.88;9.60;;;;;;;4.95;48.45;93148.03;2053935;69;20276;-70
2021/04/15 08:06:31;;;;;;;15.35;10.60;;;;;;;5.77;48.93;93150.22;2069512;69;20200;-72
2021/04/15 08:09:06;;;;;;;12.50;9.02;;;;;;;6.84;48.17;93152.13;2068488;69;20140;-73
2021/04/15 08:11:45;;;;;;;13.85;8.80;;;;;;;6.93;46.97;93145.88;2071671;69;20136;-72
2021/04/15 08:14:29;;;;;;;12.18;8.80;;;;;;;7.83;46.30;93148.09;2071598;69;20270;-73
2021/04/15 08:17:04;;;;;;;11.00;8.18;;;;;;;8.20;44.23;93145.31;2071541;69;20136;-73
2021/04/15 08:19:46;;;;;;;12.48;8.32;;;;;;;8.14;43.05;93151.16;2071675;69;20226;-75
2021/04/15 08:22:21;;;;;;;12.35;8.43;;;;;;;8.69;43.08;93148.25;2071690;69;20156;-73
2021/04/15 08:25:06;;;;;;;10.63;7.65;;;;;;;7.33;42.21;93142.78;2071643;69;20247;-73
2021/04/15 08:27:52;;;;;;;9.25;6.82;;;;;;;9.24;40.24;93141.03;2071700;69;20140;-72
2021/04/15 08:30:17;;;;;;;11.73;7.40;;;;;;;8.57;41.28;93131.25;2071617;69;20148;-72
2021/04/15 08:33:04;;;;;;;9.25;6.88;;;;;;;7.81;40.73;93138.78;2068266;69;20512;-72
2021/04/15 08:36:01;;;;;;;10.45;7.35;;;;;;;9.12;40.18;93133.22;2071714;69;20623;-73
2021/04/15 08:39:21;;;;;;;11.07;7.57;;;;;;;8.89;38.87;93128.03;2071561;69;20164;-74
2021/04/15 08:42:05;;;;;;;9.43;7.50;;;;;;;9.73;37.85;93127.66;2053720;70;20177;-73
2021/04/15 08:44:54;;;;;;;9.52;7.60;;;;;;;11.76;37.37;93129.25;2053708;70;20232;-73
2021/04/15 08:48:00;;;;;;;10.02;7.35;;;;;;;11.98;34.48;93132.75;2053754;70;20145;-73
2021/04/15 08:51:08;;;;;;;10.30;6.80;;;;;;;11.51;35.13;93126.25;2053824;70;20130;-73
2021/04/15 08:53:44;;;;;;;8.77;6.72;;;;;;;11.78;32.92;93118.09;2048603;70;20145;-73
2021/04/15 08:56:30;;;;;;;9.13;6.93;;;;;;;9.48;35.40;93125.94;2053676;70;20166;-74
2021/04/15 08:59:14;;;;;;;7.30;6.00;;;;;;;10.76;34.01;93111.53;2053826;70;20150;-73
2021/04/15 09:01:57;;;;;;;8.02;6.70;;;;;;;11.48;33.36;93110.53;2053583;70;20149;-73
2021/04/15 09:04:50;;;;;;;11.27;6.60;;;;;;;12.58;31.67;93115.25;2053839;70;20511;-74
2021/04/15 09:07:27;;;;;;;7.53;6.45;;;;;;;12.69;31.83;93110.94;2053769;70;20173;-72
2021/04/15 09:10:11;;;;;;;7.32;6.07;;;;;;;13.64;31.61;93106.50;2053850;70;20146;-73
2021/04/15 09:12:49;;;;;;;7.10;5.70;;;;;;;14.87;29.79;93108.88;2062997;69;20167;-73
2021/04/15 09:15:15;;;;;;;7.75;6.10;;;;;;;11.99;28.27;93111.66;2071587;69;20164;-73
2021/04/15 09:17:48;;;;;;;8.18;5.18;;;;;;;14.60;28.66;93114.53;2071398;69;20604;-73
2021/04/15 09:20:25;;;;;;;8.20;5.38;;;;;;;13.45;26.73;93116.78;2071539;69;20202;-74
2021/04/15 09:23:06;;;;;;;5.25;4.75;;;;;;;14.00;26.97;93113.44;2071560;69;20612;-74
2021/04/15 09:26:00;;;;;;;5.13;4.63;;;;;;;15.34;26.58;93111.22;2071511;69;20743;-74
2021/04/15 09:28:31;;;;;;;5.18;4.68;;;;;;;15.42;26.33;93117.31;2071517;69;20137;-74
2021/04/15 09:31:19;;;;;;;5.68;4.75;;;;;;;14.10;24.25;93110.44;2071428;69;20175;-73
2021/04/15 09:33:51;;;;;;;5.88;4.97;;;;;;;13.62;24.03;93109.22;2071597;69;20252;-74
2021/04/15 09:36:55;;;;;;;6.47;4.18;;;;;;;14.81;24.58;93102.91;2071490;69;20148;-73
2021/04/15 09:39:30;;;;;;;9.13;5.90;;;;;;;14.44;24.92;93097.41;2071461;69;20154;-74
2021/04/15 09:42:17;;;;;;;11.50;7.93;;;;;;;14.17;27.41;93095.25;2071572;69;20182;-73
2021/04/15 09:45:13;;;;;;;4.60;4.15;;;;;;;16.31;22.55;93088.91;2071436;69;20144;-72
2021/04/15 09:47:39;;;;;;;5.85;5.07;;;;;;;13.82;23.38;93089.81;2071650;69;20600;-74
2021/04/15 09:50:35;;;;;;;8.27;5.45;;;;;;;15.30;23.44;93088.31;2071482;69;20175;-73
2021/04/15 09:53:08;;;;;;;6.63;5.20;;;;;;;12.04;25.96;93084.44;2068380;69;20679;-74
2021/04/15 09:55:34;;;;;;;;;;;;;;;11.18;26.92;93091.06;2072202;69;20184;-74
2021/04/15 09:58:26;;;;;;;5.85;4.40;;;;;;;15.32;24.49;93094.09;2072001;69;20044;-74
2021/04/15 10:00:56;;;;;;;6.32;4.20;;;;;;;15.20;25.13;93082.88;2071897;69;20539;-75
2021/04/15 10:03:24;;;;;;;6.05;4.80;;;;;;;15.43;25.22;93087.56;2071948;69;20604;-74
2021/04/15 10:06:18;;;;;;;5.00;4.40;;;;;;;15.86;22.81;93088.91;2071947;69;20205;-74
2021/04/15 10:08:57;;;;;;;4.72;4.10;;;;;;;15.31;22.29;93078.47;2071954;69;20140;-74
2021/04/15 10:11:50;;;;;;;4.50;4.10;;;;;;;18.75;23.08;93084.03;2071947;69;20214;-74
2021/04/15 10:14:40;;;;;;;4.50;3.45;;;;;;;15.96;20.61;93078.78;2072065;69;20551;-74
2021/04/15 10:17:24;;;;;;;4.22;3.63;;;;;;;14.98;21.04;93071.19;2071821;69;20178;-74
2021/04/15 10:20:14;;;;;;;4.85;3.90;;;;;;;16.48;21.28;93084.66;2071950;69;20260;-74
2021/04/15 10:23:23;;;;;;;4.72;4.10;;;;;;;18.08;19.68;93075.75;2069376;69;20279;-74
2021/04/15 10:25:56;;;;;;;3.97;3.58;;;;;;;20.01;19.92;93075.44;2071314;69;20148;-72
2021/04/15 10:28:49;;;;;;;5.32;4.10;;;;;;;21.41;18.71;93070.28;2067811;69;20160;-74
2021/04/15 10:31:52;;;;;;;4.00;3.40;;;;;;;19.36;18.37;93068.31;2071602;69;20149;-71
2021/04/15 10:34:52;;;;;;;3.70;3.30;;;;;;;19.54;18.81;93071.06;2071749;69;20156;-74
2021/04/15 10:37:44;;;;;;;3.92;3.60;;;;;;;23.75;17.17;93091.28;2071731;69;20152;-74
2021/04/15 10:40:47;;;;;;;3.78;3.30;;;;;;;23.94;16.92;93070.03;2071668;69;20196;-74
2021/04/15 10:43:50;;;;;;;5.22;3.33;;;;;;;20.01;16.78;93070.47;2071540;69;20171;-82
2021/04/15 10:46:24;;;;;;;6.30;3.63;;;;;;;26.84;13.76;93071.22;2070760;69;20235;-77
2021/04/15 10:49:14;;;;;;;5.60;4.72;;;;;;;22.57;14.39;93070.22;2071503;69;20128;-76
2021/04/15 10:52:07;;;;;;;3.85;3.50;;;;;;;24.42;15.08;93075.16;2071399;69;20144;-70
2021/04/15 10:54:41;;;;;;;4.72;3.67;;;;;;;23.11;14.68;93071.38;2071465;69;20148;-73
2021/04/15 10:57:21;;;;;;;4.85;3.30;;;;;;;24.99;13.56;93072.34;2071472;69;20179;-72
2021/04/15 10:59:49;;;;;;;3.20;2.90;;;;;;;23.74;12.46;93073.31;2068403;69;20235;-73
2021/04/15 11:02:18;;;;;;;3.80;3.10;;;;;;;22.50;13.83;93071.50;2071555;69;20183;-72
2021/04/15 11:04:45;;;;;;;3.97;3.42;;;;;;;26.97;12.02;93074.91;2071525;69;20160;-73
2021/04/15 11:07:18;;;;;;;3.55;2.90;;;;;;;29.81;11.33;93072.13;2071674;69;20649;-73
2021/04/15 11:09:49;;;;;;;3.50;3.20;;;;;;;24.54;12.83;93071.72;2071237;69;20148;-72
2021/04/15 11:12:15;;;;;;;4.45;3.65;;;;;;;28.12;11.43;93073.88;2071505;69;20148;-73
2021/04/15 11:14:44;;;;;;;3.25;2.95;;;;;;;29.72;11.25;93067.81;2071293;69;20221;-74
2021/04/15 11:17:26;;;;;;;3.70;2.65;;;;;;;23.04;14.29;93062.59;2068233;69;20622;-75
2021/04/15 11:20:23;;;;;;;3.65;2.92;;;;;;;18.95;16.29;93037.66;2071416;69;20144;-75
2021/04/15 11:22:58;;;;;;;3.30;3.00;;;;;;;26.30;12.45;93063.66;2071707;69;20156;-75
2021/04/15 11:25:49;;;;;;;3.45;3.15;;;;;;;25.12;12.96;93059.56;2071631;69;20131;-77
2021/04/15 11:28:21;;;;;;;4.22;2.90;;;;;;;23.65;13.99;93063.09;2071767;69;20606;-79
2021/04/15 11:30:51;;;;;;;3.22;2.85;;;;;;;23.02;13.80;93053.97;2071630;69;20144;-73
2021/04/15 11:33:47;;;;;;;3.78;3.28;;;;;;;25.98;12.00;93060.47;2071705;69;20148;-71
2021/04/15 11:36:24;;;;;;;3.30;3.00;;;;;;;29.50;12.06;93071.50;2071799;69;20140;-77
2021/04/15 11:39:08;;;;;;;3.53;3.10;;;;;;;26.25;12.33;93052.75;2071579;69;20171;-79
2021/04/15 11:41:46;;;;;;;3.10;2.80;;;;;;;29.31;12.03;93057.09;2071988;69;20170;-78
2021/04/15 11:44:25;;;;;;;3.50;3.17;;;;;;;26.72;10.84;93056.75;2071632;69;20142;-74
2021/04/15 11:47:07;;;;;;;3.55;2.88;;;;;;;26.23;11.35;93052.75;2071621;69;20164;-73
2021/04/15 11:49:37;;;;;;;4.20;3.80;;;;;;;25.91;12.31;93048.16;2071584;69;20236;-74
2021/04/15 11:52:11;;;;;;;4.30;2.92;;;;;;;27.35;11.92;93054.19;2071825;69;20152;-75
2021/04/15 11:54:42;;;;;;;3.10;2.80;;;;;;;27.48;11.54;93057.09;2071379;69;20676;-75
2021/04/15 11:57:20;;;;;;;4.50;3.58;;;;;;;25.99;12.09;93056.91;2071602;69;20152;-75
2021/04/15 12:00:04;;;;;;;4.00;2.50;;;;;;;23.64;14.01;93037.88;2071078;69;20152;-76
2021/04/15 12:03:08;;;;;;;2.83;2.63;;;;;;;25.82;13.54;93050.25;2071517;69;20206;-74
2021/04/15 12:05:42;;;;;;;3.08;2.47;;;;;;;29.89;10.69;93057.56;2071328;69;20141;-75
2021/04/15 12:08:23;;;;;;;2.83;2.53;;;;;;;22.56;13.89;93040.06;2071408;69;20215;-75
2021/04/15 12:10:58;;;;;;;2.38;2.17;;;;;;;25.17;13.38;93043.78;2067975;69;20152;-74
2021/04/15 12:13:41;;;;;;;2.72;2.53;;;;;;;20.37;14.49;93038.69;2071498;69;20235;-74
2021/04/15 12:16:15;;;;;;;3.00;2.70;;;;;;;21.37;15.19;93029.34;2067801;69;20211;-73
2021/04/15 12:18:50;;;;;;;3.20;2.80;;;;;;;24.73;14.26;93036.00;2068223;69;20685;-73
2021/04/15 12:21:39;;;;;;;2.85;2.58;;;;;;;27.94;11.91;93047.81;2068045;69;20171;-74
2021/04/15 12:24:25;;;;;;;3.47;2.78;;;;;;;27.90;11.84;93050.69;2068318;69;20132;-74